Time;durP1;ratioP1;P1;durP2;ratioP2;P2;SDS_P1;SDS_P2;PMS_P1;PMS_P2;Temp;Humidity;BMP_temperature;BMP_pressure;BME280_temperature;BME280_humidity;BME280_pressure;Samples;Min_cycle;Max_cycle;Signal;HPM_P1;HPM_P2
2023/08/22 00:01:12;;;;;;;2.05;1.08;;;;;;;29.98;44.31;102017.69;4907814;28;97122;-81
2023/08/22 00:03:39;;;;;;;1.92;1.02;;;;;;;29.97;44.12;102015.13;4906877;28;96684;-80
2023/08/22 00:06:05;;;;;;;1.73;0.93;;;;;;;29.97;44.30;102009.59;4905189;28;96971;-81
2023/08/22 00:08:32;;;;;;;1.85;1.10;;;;;;;29.97;44.16;102006.81;4919105;28;100007;-81
2023/08/22 00:10:59;;;;;;;2.85;0.98;;;;;;;29.96;44.22;102003.19;4904346;28;96882;-81
2023/08/22 00:13:26;;;;;;;1.70;0.85;;;;;;;29.97;44.48;102001.28;4901879;28;96585;-81
2023/08/22 00:15:58;;;;;;;2.47;1.10;;;;;;;29.96;44.39;101997.66;4908145;28;97287;-80
2023/08/22 00:18:25;;;;;;;1.70;0.90;;;;;;;29.96;44.19;101997.66;4898066;28;96888;-81
2023/08/22 00:20:52;;;;;;;1.30;0.93;;;;;;;29.96;44.23;102005.13;4913506;28;98302;-81
2023/08/22 00:23:19;;;;;;;1.13;0.77;;;;;;;29.95;44.36;102003.41;4904566;28;97408;-81
2023/08/22 00:25:45;;;;;;;1.63;0.90;;;;;;;29.95;44.29;101992.34;4906709;28;97008;-81
2023/08/22 00:28:14;;;;;;;1.27;0.80;;;;;;;29.95;44.45;101995.97;4901924;28;96846;-81
2023/08/22 00:30:41;;;;;;;1.65;1.00;;;;;;;29.95;44.49;101997.88;4908524;28;96955;-81
2023/08/22 00:33:07;;;;;;;2.03;0.80;;;;;;;29.95;44.39;102000.63;4908516;28;97361;-81
2023/08/22 00:35:34;;;;;;;1.63;0.90;;;;;;;29.94;44.57;102005.31;4909374;28;96831;-81
2023/08/22 00:38:01;;;;;;;1.30;0.95;;;;;;;29.94;43.92;102005.31;4905432;28;97258;-81
2023/08/22 00:40:27;;;;;;;1.67;1.00;;;;;;;29.94;44.25;102001.69;4908345;28;97457;-81
2023/08/22 00:42:54;;;;;;;2.05;1.08;;;;;;;29.93;44.28;102000.00;4891591;28;97257;-81
2023/08/22 00:45:21;;;;;;;1.10;0.80;;;;;;;29.93;44.26;101998.09;4911833;28;96928;-80
2023/08/22 00:47:47;;;;;;;1.02;0.70;;;;;;;29.93;44.38;101998.09;4911105;28;97378;-81
2023/08/22 00:50:14;;;;;;;1.67;0.82;;;;;;;29.93;44.21;101987.00;4910642;28;99827;-81
2023/08/22 00:52:41;;;;;;;1.80;0.90;;;;;;;29.94;44.12;101990.63;4891223;28;96625;-81
2023/08/22 00:55:08;;;;;;;1.13;0.77;;;;;;;29.94;44.01;101990.63;4905158;28;97299;-82
2023/08/22 00:57:35;;;;;;;1.73;0.77;;;;;;;29.93;44.29;101983.38;4901991;28;99679;-81
2023/08/22 01:00:10;;;;;;;1.30;0.80;;;;;;;29.92;44.45;101985.28;4907658;28;97255;-80
2023/08/22 01:02:38;;;;;;;;;;;;;;;29.89;44.29;101982.09;4900385;28;96885;-81
2023/08/22 01:05:07;;;;;;;1.45;0.70;;;;;;;29.88;44.54;101972.94;4927051;28;96784;-81
2023/08/22 01:08:18;;;;;;;1.98;0.77;;;;;;;29.89;44.08;101958.00;4909209;28;98863;-81
2023/08/22 01:10:52;;;;;;;0.80;0.60;;;;;;;29.88;44.12;101959.06;4888446;28;98795;-80
2023/08/22 01:13:33;;;;;;;2.60;1.00;;;;;;;29.88;44.15;101974.84;4884465;28;96873;-81
2023/08/22 01:16:01;;;;;;;1.38;0.88;;;;;;;29.87;44.21;101968.44;4908537;28;96914;-81
2023/08/22 01:18:28;;;;;;;2.42;0.82;;;;;;;29.86;44.37;101972.28;4910596;28;100031;-81
2023/08/22 01:21:04;;;;;;;1.27;0.90;;;;;;;29.88;44.43;101975.69;4910925;28;98774;-81
2023/08/22 01:23:32;;;;;;;1.25;0.85;;;;;;;29.87;44.49;101960.13;4905413;28;96729;-81
2023/08/22 01:25:59;;;;;;;1.27;0.88;;;;;;;29.88;44.47;101963.75;4907649;28;96835;-81
2023/08/22 01:28:44;;;;;;;1.10;0.85;;;;;;;29.88;44.29;101966.53;4893455;28;100342;-81
2023/08/22 01:31:15;;;;;;;1.88;1.00;;;;;;;29.86;44.27;101961.22;4897941;28;97048;-81
2023/08/22 01:33:51;;;;;;;1.25;0.80;;;;;;;29.87;44.32;101974.00;4909249;28;97116;-81
2023/08/22 01:36:20;;;;;;;1.45;0.85;;;;;;;29.87;44.04;101967.59;4901530;28;98047;-80
2023/08/22 01:38:49;;;;;;;1.20;1.00;;;;;;;29.86;44.20;101958.44;4908390;28;96956;-80
2023/08/22 01:41:16;;;;;;;0.98;0.77;;;;;;;29.87;44.36;101964.81;4913768;28;97234;-81
2023/08/22 01:43:43;;;;;;;1.23;0.90;;;;;;;29.86;44.47;101955.66;4925675;28;97184;-81
2023/08/22 01:46:10;;;;;;;1.23;0.80;;;;;;;29.86;44.32;101958.44;4911984;28;96801;-81
2023/08/22 01:48:36;;;;;;;1.65;0.82;;;;;;;29.87;44.42;101948.22;4893462;28;97455;-81
2023/08/22 01:51:03;;;;;;;1.10;0.80;;;;;;;29.86;44.13;101949.28;4906208;28;99420;-81
2023/08/22 01:53:30;;;;;;;1.38;0.80;;;;;;;29.86;44.37;101950.13;4895659;28;96997;-81
2023/08/22 01:56:00;;;;;;;1.00;0.70;;;;;;;29.87;44.07;101956.53;4913926;28;97019;-81
2023/08/22 01:58:26;;;;;;;1.38;0.70;;;;;;;29.85;44.29;101948.41;4909921;28;99495;-81
2023/08/22 02:00:53;;;;;;;1.10;0.70;;;;;;;29.85;44.33;101939.25;4910838;28;99350;-81
2023/08/22 02:03:20;;;;;;;1.00;0.73;;;;;;;29.85;44.31;101951.19;4909137;28;97297;-81
2023/08/22 02:05:47;;;;;;;1.40;0.68;;;;;;;29.85;44.13;101947.56;4911329;28;96750;-80
2023/08/22 02:08:15;;;;;;;1.75;0.90;;;;;;;29.85;44.37;101951.19;4890509;28;97704;-80
2023/08/22 02:10:42;;;;;;;1.55;0.80;;;;;;;29.85;44.19;101950.34;4887859;28;99101;-81
2023/08/22 02:13:08;;;;;;;1.10;0.82;;;;;;;29.84;44.09;101954.16;4911520;28;96649;-81
2023/08/22 02:15:35;;;;;;;1.48;0.77;;;;;;;29.84;44.56;101956.94;4911071;28;96898;-80
2023/08/22 02:18:02;;;;;;;1.40;0.85;;;;;;;29.84;44.09;101951.41;4910794;28;97127;-81
2023/08/22 02:20:28;;;;;;;1.10;0.60;;;;;;;29.84;44.32;101951.41;4911015;28;97198;-81
2023/08/22 02:22:56;;;;;;;2.00;0.85;;;;;;;29.84;44.42;101952.25;4911115;28;96801;-80
2023/08/22 02:25:23;;;;;;;1.10;0.90;;;;;;;29.83;44.07;101936.69;4895251;28;96596;-81
2023/08/22 02:27:50;;;;;;;1.73;0.80;;;;;;;29.84;44.17;101945.88;4910402;28;100067;-81
2023/08/22 02:30:16;;;;;;;1.35;0.80;;;;;;;29.83;44.25;101946.91;4911856;28;96744;-81
2023/08/22 02:32:43;;;;;;;1.67;0.80;;;;;;;29.82;44.28;101946.06;4913075;28;97036;-81
2023/08/22 02:35:09;;;;;;;2.25;0.80;;;;;;;29.82;44.56;101934.13;4902766;28;96892;-81
2023/08/22 02:37:36;;;;;;;0.95;0.70;;;;;;;29.83;44.28;101935.84;4910697;28;99453;-81
2023/08/22 02:40:06;;;;;;;1.38;1.00;;;;;;;29.83;44.31;101941.38;4907492;28;98856;-81
2023/08/22 02:42:33;;;;;;;0.85;0.80;;;;;;;29.81;44.24;101936.06;4902313;28;97125;-81
2023/08/22 02:45:01;;;;;;;1.70;0.93;;;;;;;29.82;44.34;101935.00;4895818;28;96856;-81
2023/08/22 02:47:29;;;;;;;1.50;0.73;;;;;;;29.81;44.26;101936.06;4895281;28;99763;-81
2023/08/22 02:49:55;;;;;;;1.90;1.25;;;;;;;29.82;44.42;101934.13;4911920;28;96836;-81
2023/08/22 02:52:22;;;;;;;1.45;0.95;;;;;;;29.81;44.43;101924.97;4911047;28;96778;-81
2023/08/22 02:54:48;;;;;;;0.80;0.80;;;;;;;29.81;44.50;101924.97;4910263;28;97400;-81
2023/08/22 02:57:15;;;;;;;1.08;0.80;;;;;;;29.80;44.22;101926.03;4909516;28;98696;-81
2023/08/22 02:59:41;;;;;;;1.52;0.82;;;;;;;29.80;44.11;101925.19;4906236;28;97758;-81
2023/08/22 03:02:08;;;;;;;1.05;0.77;;;;;;;29.80;44.04;101922.41;4904683;28;96755;-81
2023/08/22 03:04:37;;;;;;;1.67;1.00;;;;;;;29.81;44.22;101929.66;4897957;28;96691;-81
2023/08/22 03:07:04;;;;;;;1.88;1.15;;;;;;;29.80;44.23;101933.50;4888453;28;100806;-81
2023/08/22 03:09:32;;;;;;;1.92;1.10;;;;;;;29.80;44.32;101931.56;4905350;28;97749;-81
2023/08/22 03:11:59;;;;;;;1.58;0.80;;;;;;;29.80;44.24;101934.34;4908523;28;97431;-81
2023/08/22 03:14:26;;;;;;;1.10;0.80;;;;;;;29.80;44.06;101931.56;4902829;28;97404;-81
2023/08/22 03:16:52;;;;;;;4.40;1.00;;;;;;;29.79;44.50;101929.88;4907802;28;100015;-81
2023/08/22 03:19:19;;;;;;;1.67;0.65;;;;;;;29.79;44.38;101932.66;4895387;28;99772;-81
2023/08/22 03:21:49;;;;;;;1.00;0.77;;;;;;;29.79;44.24;101932.66;4909596;28;97108;-81
2023/08/22 03:24:15;;;;;;;0.85;0.63;;;;;;;29.80;44.46;101936.25;4894517;28;96509;-81
2023/08/22 03:26:42;;;;;;;2.10;1.00;;;;;;;29.78;44.50;101925.41;4908259;28;96719;-81
2023/08/22 03:29:10;;;;;;;1.02;0.80;;;;;;;29.77;44.34;101918.16;4902369;28;98102;-81
2023/08/22 03:31:38;;;;;;;1.30;0.90;;;;;;;29.77;44.20;101922.84;4908575;28;97277;-81
2023/08/22 03:34:04;;;;;;;1.40;0.80;;;;;;;29.77;43.94;101925.59;4911413;28;96728;-80
2023/08/22 03:36:32;;;;;;;1.35;0.73;;;;;;;29.77;44.16;101914.53;4893417;28;99817;-81
2023/08/22 03:39:02;;;;;;;1.00;0.70;;;;;;;29.77;44.26;101925.59;4908933;28;97089;-80
2023/08/22 03:41:30;;;;;;;0.93;0.70;;;;;;;29.77;44.07;101923.69;4906721;28;97077;-81
2023/08/22 03:43:58;;;;;;;1.52;0.90;;;;;;;29.77;44.14;101928.38;4909206;28;96927;-81
2023/08/22 03:46:26;;;;;;;1.02;0.93;;;;;;;29.77;44.28;101932.00;4894025;28;96853;-80
2023/08/22 03:49:06;;;;;;;1.35;0.95;;;;;;;29.76;44.45;101923.91;4896590;28;97367;-81
2023/08/22 03:51:33;;;;;;;0.98;0.77;;;;;;;29.76;44.31;101927.53;4911822;28;97494;-81
2023/08/22 03:54:00;;;;;;;1.05;0.90;;;;;;;29.77;44.28;101936.69;4907905;28;97068;-81
2023/08/22 03:56:27;;;;;;;1.77;1.13;;;;;;;29.75;44.29;101920.28;4891808;28;99803;-81
2023/08/22 03:58:53;;;;;;;1.10;0.70;;;;;;;29.75;44.35;101920.28;4893406;28;99598;-81
2023/08/22 04:01:20;;;;;;;1.05;0.73;;;;;;;29.75;44.24;101923.03;4893761;28;98152;-81
2023/08/22 04:03:46;;;;;;;1.10;0.90;;;;;;;29.73;44.31;101917.72;4908956;28;96858;-81
2023/08/22 04:06:13;;;;;;;1.67;0.73;;;;;;;29.75;44.17;101922.19;4886026;28;100402;-81
2023/08/22 04:08:39;;;;;;;1.45;0.60;;;;;;;29.74;44.26;101918.56;4900099;28;98643;-81
2023/08/22 04:11:06;;;;;;;1.67;1.00;;;;;;;29.75;44.14;101930.50;4909129;28;96733;-81
2023/08/22 04:13:33;;;;;;;1.38;0.90;;;;;;;29.74;44.00;101921.34;4910737;28;97371;-81
2023/08/22 04:16:00;;;;;;;1.23;0.75;;;;;;;29.73;44.30;101923.25;4911404;28;97563;-81
2023/08/22 04:18:26;;;;;;;1.55;0.70;;;;;;;29.74;44.19;101924.13;4910503;28;99471;-81
2023/08/22 04:20:53;;;;;;;1.10;0.63;;;;;;;29.73;44.38;101914.09;4912283;28;96768;-80
2023/08/22 04:23:19;;;;;;;1.15;0.77;;;;;;;29.73;44.22;101914.09;4907071;28;97536;-81
2023/08/22 04:25:46;;;;;;;1.02;0.80;;;;;;;29.72;43.96;101913.22;4905399;28;99332;-81
2023/08/22 04:28:13;;;;;;;1.13;0.70;;;;;;;29.72;44.10;101915.13;4905506;28;98573;-81
2023/08/22 04:30:42;;;;;;;0.82;0.73;;;;;;;29.72;44.24;101915.13;4910172;28;96722;-80
2023/08/22 04:33:09;;;;;;;1.00;0.80;;;;;;;29.72;44.45;101912.34;4889656;28;97011;-81
2023/08/22 04:35:37;;;;;;;1.45;0.80;;;;;;;29.73;44.21;101914.09;4905904;28;99334;-81
2023/08/22 04:38:04;;;;;;;2.17;0.85;;;;;;;29.72;44.30;101909.59;4920322;28;99488;-81
2023/08/22 04:40:32;;;;;;;1.13;0.77;;;;;;;29.72;44.07;101915.13;4906228;28;96977;-81
2023/08/22 04:43:07;;;;;;;0.90;0.70;;;;;;;29.70;44.44;101920.88;4908545;28;96626;-81
2023/08/22 04:45:33;;;;;;;1.30;0.73;;;;;;;29.69;44.31;101913.63;4894548;28;97094;-81
2023/08/22 04:48:01;;;;;;;1.73;0.90;;;;;;;29.71;44.15;101921.72;4895602;28;96812;-80
2023/08/22 04:50:29;;;;;;;1.10;0.80;;;;;;;29.70;44.06;101918.09;4893077;28;97421;-81
2023/08/22 04:52:55;;;;;;;1.27;0.80;;;;;;;29.70;44.10;101920.88;4903774;28;97930;-81
2023/08/22 04:55:23;;;;;;;0.98;0.80;;;;;;;29.70;44.23;101918.09;4882952;28;97498;-77
2023/08/22 04:57:50;;;;;;;91.05;25.35;;;;;;;29.72;44.30;101917.91;4888152;28;97345;-76
2023/08/22 05:00:17;;;;;;;42.45;10.07;;;;;;;29.76;44.02;101926.66;4908801;28;96823;-78
2023/08/22 05:02:44;;;;;;;16.10;4.55;;;;;;;29.82;44.34;101917.53;4905007;28;96771;-74
2023/08/22 05:05:10;;;;;;;6.30;2.50;;;;;;;29.86;43.96;101916.88;4901860;28;97734;-73
2023/08/22 05:07:37;;;;;;;6.72;2.35;;;;;;;29.90;44.16;101920.09;4884218;28;99061;-73
2023/08/22 05:10:05;;;;;;;8.23;3.10;;;;;;;29.93;43.88;101922.44;4902626;28;97310;-74
2023/08/22 05:12:32;;;;;;;10.15;3.20;;;;;;;29.94;44.01;101921.38;4907847;28;97103;-74
2023/08/22 05:14:58;;;;;;;13.32;3.83;;;;;;;29.94;43.83;101924.16;4907063;28;98889;-73
2023/08/22 05:17:25;;;;;;;10.57;4.28;;;;;;;29.94;43.63;101919.47;4906684;28;99128;-74
2023/08/22 05:19:52;;;;;;;9.20;3.67;;;;;;;29.94;43.91;101921.38;4904190;28;96811;-74
2023/08/22 05:22:18;;;;;;;7.32;3.35;;;;;;;29.94;44.04;101925.00;4901805;28;97610;-74
2023/08/22 05:24:46;;;;;;;11.15;3.53;;;;;;;29.94;43.74;101925.00;4890211;28;98040;-74
2023/08/22 05:27:14;;;;;;;8.88;3.42;;;;;;;29.95;43.93;101923.09;4897536;28;96639;-74
2023/08/22 05:29:40;;;;;;;8.77;3.00;;;;;;;29.95;44.08;101925.84;4908948;28;96741;-74
2023/08/22 05:32:07;;;;;;;6.55;2.55;;;;;;;29.94;44.01;101929.69;4909455;28;97407;-74
2023/08/22 05:34:34;;;;;;;7.25;3.03;;;;;;;29.95;43.69;101931.41;4910791;28;99598;-74
2023/08/22 05:37:02;;;;;;;8.35;3.88;;;;;;;29.94;43.77;101927.78;4908597;28;97784;-74
2023/08/22 05:39:28;;;;;;;5.90;2.75;;;;;;;29.94;43.72;101936.09;4910298;28;96831;-74
2023/08/22 05:41:55;;;;;;;7.53;2.45;;;;;;;29.95;43.88;101931.41;4893690;28;98483;-74
2023/08/22 05:44:22;;;;;;;5.82;2.58;;;;;;;29.95;43.85;101937.78;4910313;28;97361;-74
2023/08/22 05:46:49;;;;;;;7.15;2.67;;;;;;;29.95;43.98;101929.47;4910663;28;99112;-74
2023/08/22 05:49:17;;;;;;;6.40;2.70;;;;;;;29.95;43.70;101925.84;4894781;28;98162;-74
2023/08/22 05:51:44;;;;;;;5.63;2.50;;;;;;;29.96;43.80;101933.09;4905343;28;97473;-74
2023/08/22 05:54:11;;;;;;;6.22;2.58;;;;;;;29.95;43.91;101932.25;4904350;28;97970;-74
2023/08/22 05:56:40;;;;;;;5.10;2.63;;;;;;;29.95;43.92;101925.84;4905122;28;96834;-74
2023/08/22 05:59:06;;;;;;;6.78;2.45;;;;;;;29.95;43.99;101932.25;4906456;28;96888;-74
2023/08/22 06:01:33;;;;;;;5.35;2.50;;;;;;;29.97;43.69;101941.19;4907214;28;98735;-74
2023/08/22 06:04:02;;;;;;;6.50;2.63;;;;;;;29.97;43.93;101943.13;4902878;28;97789;-74
2023/08/22 06:06:29;;;;;;;5.38;2.22;;;;;;;29.97;43.67;101951.44;4896353;28;96754;-73
2023/08/22 06:08:55;;;;;;;5.22;2.15;;;;;;;29.96;43.92;101942.25;4903336;28;97248;-74
2023/08/22 06:11:22;;;;;;;5.20;2.20;;;;;;;29.97;43.69;101937.56;4909301;28;97390;-73
2023/08/22 06:13:50;;;;;;;4.35;1.90;;;;;;;29.96;43.82;101945.03;4900814;28;98662;-74
2023/08/22 06:16:16;;;;;;;3.05;1.75;;;;;;;29.96;43.54;101945.03;4885453;28;99790;-74
2023/08/22 06:18:43;;;;;;;4.15;2.55;;;;;;;29.97;43.88;101948.66;4905943;28;96707;-74
2023/08/22 06:21:09;;;;;;;4.10;1.95;;;;;;;29.97;43.67;101956.97;4907016;28;97839;-74
2023/08/22 06:23:36;;;;;;;4.22;1.90;;;;;;;29.98;43.91;101958.66;4906784;28;96776;-74
2023/08/22 06:26:03;;;;;;;3.47;1.85;;;;;;;29.97;43.70;101946.75;4908095;28;97094;-73
2023/08/22 06:28:29;;;;;;;3.33;1.95;;;;;;;29.97;43.95;101952.28;4906927;28;96625;-74
2023/08/22 06:31:03;;;;;;;6.72;1.92;;;;;;;29.98;43.91;101947.59;4903407;28;98129;-74
2023/08/22 06:33:33;;;;;;;3.65;1.90;;;;;;;29.97;43.90;101945.88;4902990;28;97289;-74
2023/08/22 06:36:03;;;;;;;3.95;1.80;;;;;;;29.96;43.51;101946.94;4899280;28;97474;-74
2023/08/22 06:38:30;;;;;;;4.45;2.20;;;;;;;29.95;43.76;101943.31;4908702;28;96891;-74
2023/08/22 06:40:57;;;;;;;5.72;2.22;;;;;;;29.96;43.77;101947.81;4906454;28;97040;-74
2023/08/22 06:43:23;;;;;;;5.68;1.88;;;;;;;29.96;43.67;101946.94;4904839;28;99007;-74
2023/08/22 06:45:56;;;;;;;4.47;2.08;;;;;;;29.95;43.76;101943.31;4887350;28;98843;-74
2023/08/22 06:48:23;;;;;;;5.25;2.33;;;;;;;29.95;43.72;101943.31;4899442;28;96744;-74
2023/08/22 06:51:06;;;;;;;3.08;1.80;;;;;;;29.94;43.86;101941.63;4905796;28;96979;-74
2023/08/22 06:53:32;;;;;;;3.17;1.90;;;;;;;29.94;43.77;101944.38;4911093;28;98844;-74
2023/08/22 06:55:59;;;;;;;4.63;2.20;;;;;;;29.95;43.88;101948.00;4908652;28;98294;-73
2023/08/22 06:58:25;;;;;;;3.72;1.75;;;;;;;29.95;43.79;101953.56;4908668;28;96872;-74
2023/08/22 07:00:52;;;;;;;3.80;1.80;;;;;;;29.94;43.64;101965.69;4908820;28;97746;-74
2023/08/22 07:03:18;;;;;;;3.97;2.25;;;;;;;29.94;43.68;101960.16;4907591;28;97686;-74
2023/08/22 07:05:50;;;;;;;4.63;2.45;;;;;;;29.96;43.52;101960.78;4909139;28;97413;-74
2023/08/22 07:08:57;;;;;;;4.75;2.20;;;;;;;29.94;43.80;101966.53;5013199;28;96698;-79
2023/08/22 07:11:24;;;;;;;3.58;2.00;;;;;;;29.94;43.49;101969.31;5010688;28;97239;-80
2023/08/22 07:13:50;;;;;;;3.90;2.00;;;;;;;29.97;43.82;101973.59;5008966;28;99959;-83
2023/08/22 07:16:17;;;;;;;3.40;2.03;;;;;;;30.00;43.85;101967.63;5001036;28;99962;-83
2023/08/22 07:18:44;;;;;;;7.95;5.53;;;;;;;30.02;43.65;101962.75;5011103;28;96942;-75
2023/08/22 07:21:11;;;;;;;5.07;2.63;;;;;;;30.03;43.68;101967.25;5011912;28;97201;-85
2023/08/22 07:23:37;;;;;;;6.00;2.20;;;;;;;30.04;43.84;101975.34;5013308;28;98776;-87
2023/08/22 07:26:04;;;;;;;2.42;1.80;;;;;;;30.06;43.49;101971.50;4991167;28;99128;-84
2023/08/22 07:28:30;;;;;;;4.05;2.00;;;;;;;30.10;43.61;101972.78;5010978;28;96671;-80
2023/08/22 07:30:59;;;;;;;4.63;2.28;;;;;;;30.11;43.66;101980.03;5010498;28;96668;-78
2023/08/22 07:33:26;;;;;;;3.50;1.80;;;;;;;30.13;43.71;101978.75;5011092;28;97510;-80
2023/08/22 07:35:52;;;;;;;2.65;1.45;;;;;;;30.16;43.53;101986.66;5011410;28;96733;-85
2023/08/22 07:38:19;;;;;;;4.10;2.13;;;;;;;30.17;43.39;101977.28;5017390;28;97081;-75
2023/08/22 07:40:45;;;;;;;5.88;2.15;;;;;;;30.20;43.53;101982.41;5011985;28;96900;-81
2023/08/22 07:43:12;;;;;;;5.65;2.05;;;;;;;30.23;43.48;101983.88;5013523;28;96855;-83
2023/08/22 07:45:38;;;;;;;5.25;2.08;;;;;;;30.25;43.41;101977.06;5009792;28;96932;-79
